createdAt,value
2019-02-14T00:01:28.707Z,27.43
2019-02-14T00:04:01.496Z,21.60
2019-02-14T00:06:32.505Z,38.37
2019-02-14T00:09:04.907Z,25.07
2019-02-14T00:11:39.726Z,30.63
2019-02-14T00:14:13.939Z,29.40
2019-02-14T00:16:48.437Z,28.27
2019-02-14T00:19:23.207Z,22.47
2019-02-14T00:21:54.141Z,26.07
2019-02-14T00:24:25.471Z,28.83
2019-02-14T00:26:56.980Z,26.10
2019-02-14T00:29:27.112Z,27.63
2019-02-14T00:31:58.235Z,26.03
2019-02-14T00:34:28.526Z,23.33
2019-02-14T00:37:00.001Z,29.17
2019-02-14T00:39:31.490Z,26.43
2019-02-14T00:42:02.733Z,33.80
2019-02-14T00:44:33.551Z,30.63
2019-02-14T00:47:04.713Z,31.47
2019-02-14T00:49:35.128Z,31.37
2019-02-14T00:52:06.367Z,29.33
2019-02-14T00:54:38.826Z,27.70
2019-02-14T00:57:11.145Z,22.47
2019-02-14T00:59:41.625Z,25.00
2019-02-14T01:02:13.002Z,22.57
2019-02-14T01:04:47.113Z,28.60
2019-02-14T01:07:19.971Z,23.13
2019-02-14T01:09:49.875Z,32.63
2019-02-14T01:12:22.717Z,32.77
2019-02-14T01:14:56.513Z,24.53
2019-02-14T01:17:26.925Z,25.57
2019-02-14T01:20:04.380Z,24.10
2019-02-14T01:22:36.637Z,23.60
2019-02-14T01:25:07.105Z,26.97
2019-02-14T01:27:42.315Z,25.87
2019-02-14T01:30:12.190Z,26.03
2019-02-14T01:32:49.547Z,27.07
2019-02-14T01:35:25.677Z,25.17
2019-02-14T01:37:58.338Z,26.57
2019-02-14T01:40:28.204Z,25.93
2019-02-14T01:43:00.099Z,30.77
2019-02-14T01:45:31.089Z,19.97
2019-02-14T01:48:02.276Z,43.07
2019-02-14T01:50:33.300Z,28.60
2019-02-14T01:53:04.488Z,22.77
2019-02-14T01:55:35.752Z,23.03
2019-02-14T01:58:06.158Z,24.60
2019-02-14T02:00:40.146Z,29.67
2019-02-14T02:03:14.804Z,20.63
2019-02-14T02:05:50.765Z,35.93
2019-02-14T02:08:20.566Z,25.17
2019-02-14T02:10:52.011Z,25.97
2019-02-14T02:13:27.515Z,27.73
2019-02-14T02:15:57.886Z,24.57
2019-02-14T02:18:30.314Z,18.93
2019-02-14T02:21:04.084Z,21.83
2019-02-14T02:23:34.864Z,31.67
2019-02-14T02:26:04.674Z,26.50
2019-02-14T02:28:38.393Z,25.70
2019-02-14T02:31:12.598Z,24.77
2019-02-14T02:33:45.391Z,21.63
2019-02-14T02:36:18.268Z,26.57
2019-02-14T02:38:48.233Z,20.30
2019-02-14T02:41:22.998Z,30.47
2019-02-14T02:43:52.828Z,18.67
2019-02-14T02:46:22.713Z,25.33
2019-02-14T02:48:52.539Z,18.03
2019-02-14T02:51:23.378Z,14.60
2019-02-14T02:53:53.852Z,20.80
2019-02-14T02:56:23.660Z,21.70
2019-02-14T02:58:54.479Z,20.83
2019-02-14T03:01:27.278Z,21.30
2019-02-14T03:03:57.163Z,24.50
2019-02-14T03:06:29.007Z,20.33
2019-02-14T03:09:00.457Z,17.70
2019-02-14T03:11:36.910Z,17.00
2019-02-14T03:14:07.801Z,19.80
2019-02-14T03:16:37.663Z,28.87
2019-02-14T03:19:08.315Z,17.73
2019-02-14T03:21:42.262Z,23.03
2019-02-14T03:24:15.920Z,20.13
2019-02-14T03:26:47.335Z,18.07
2019-02-14T03:29:18.312Z,15.77
2019-02-14T03:31:49.555Z,20.77
2019-02-14T03:34:21.848Z,20.17
2019-02-14T03:36:53.368Z,17.73
2019-02-14T03:39:30.487Z,25.17
2019-02-14T03:42:00.827Z,19.23
2019-02-14T03:44:31.248Z,18.07
2019-02-14T03:47:02.670Z,20.80
2019-02-14T03:49:34.772Z,19.13
2019-02-14T03:52:06.368Z,22.10
2019-02-14T03:54:41.446Z,16.77
2019-02-14T03:57:14.232Z,16.53
2019-02-14T03:59:52.208Z,21.63
2019-02-14T04:02:28.296Z,17.23
2019-02-14T04:04:59.791Z,18.87
2019-02-14T04:07:29.944Z,16.40
2019-02-14T04:10:01.403Z,23.90
2019-02-14T04:12:33.738Z,14.47
2019-02-14T04:15:11.804Z,19.07
2019-02-14T04:17:45.139Z,17.27
2019-02-14T04:20:17.161Z,19.07
2019-02-14T04:22:48.492Z,19.40
2019-02-14T04:25:26.308Z,19.10
2019-02-14T04:27:57.234Z,18.57
2019-02-14T04:30:27.769Z,17.83
2019-02-14T04:33:01.263Z,18.50
2019-02-14T04:35:31.644Z,17.73
2019-02-14T04:38:04.092Z,20.10
2019-02-14T04:40:33.985Z,16.90
2019-02-14T04:43:05.020Z,17.47
2019-02-14T04:45:37.037Z,11.43
2019-02-14T04:48:11.663Z,19.40
2019-02-14T04:50:45.159Z,16.83
2019-02-14T04:53:16.663Z,14.63
2019-02-14T04:55:47.963Z,19.93
2019-02-14T04:58:18.921Z,16.23
2019-02-14T05:00:48.910Z,14.13
2019-02-14T05:03:23.017Z,16.43
2019-02-14T05:05:57.885Z,12.57
2019-02-14T05:08:29.531Z,22.57
2019-02-14T05:11:02.131Z,16.70
2019-02-14T05:13:32.000Z,19.37
2019-02-14T05:16:01.841Z,16.97
2019-02-14T05:18:31.744Z,18.37
2019-02-14T05:21:02.573Z,19.20
2019-02-14T05:23:33.681Z,18.30
2019-02-14T05:26:06.659Z,14.83
2019-02-14T05:28:37.833Z,16.10
2019-02-14T05:31:10.377Z,17.73
2019-02-14T05:33:41.692Z,15.77
2019-02-14T05:36:11.530Z,15.63
2019-02-14T05:38:42.301Z,12.97
2019-02-14T05:41:14.744Z,18.00
2019-02-14T05:43:44.627Z,16.77
2019-02-14T05:46:16.267Z,12.80
2019-02-14T05:48:49.109Z,12.87
2019-02-14T05:51:22.317Z,15.90
2019-02-14T05:53:52.313Z,19.03
2019-02-14T05:56:23.589Z,14.50
2019-02-14T05:58:55.066Z,14.40
2019-02-14T06:01:26.563Z,13.70
2019-02-14T06:03:59.168Z,13.97
2019-02-14T06:06:28.999Z,15.07
2019-02-14T06:09:01.921Z,15.67
2019-02-14T06:11:33.043Z,17.63
2019-02-14T06:14:05.967Z,15.57
2019-02-14T06:16:35.768Z,17.03
2019-02-14T06:19:08.087Z,15.87
2019-02-14T06:21:37.883Z,13.73
2019-02-14T06:24:07.802Z,15.83
2019-02-14T06:26:37.635Z,22.50
2019-02-14T06:29:11.155Z,18.33
2019-02-14T06:31:40.999Z,12.93
2019-02-14T06:34:14.736Z,15.43
2019-02-14T06:36:46.762Z,15.50
2019-02-14T06:39:23.410Z,15.83
2019-02-14T06:41:54.254Z,11.03
2019-02-14T06:44:24.283Z,11.47
2019-02-14T06:46:54.129Z,14.73
2019-02-14T06:49:24.641Z,11.53
2019-02-14T06:51:56.323Z,12.83
2019-02-14T06:54:26.331Z,14.77
2019-02-14T06:57:07.352Z,15.30
2019-02-14T07:02:34.867Z,12.20
2019-02-14T07:05:09.582Z,13.03
2019-02-14T07:07:40.933Z,13.13
2019-02-14T07:10:11.766Z,13.10
2019-02-14T07:12:44.444Z,20.67
2019-02-14T07:15:17.595Z,10.43
2019-02-14T07:17:48.779Z,16.07
2019-02-14T07:20:18.766Z,12.43
2019-02-14T07:22:49.302Z,10.40
2019-02-14T07:25:20.538Z,11.87
2019-02-14T07:27:50.317Z,10.23
2019-02-14T07:30:24.538Z,18.03
2019-02-14T07:32:56.348Z,13.10
2019-02-14T07:35:27.656Z,11.73
2019-02-14T07:37:57.473Z,10.30
2019-02-14T07:40:29.686Z,9.87
2019-02-14T07:42:59.391Z,9.63
2019-02-14T07:45:29.208Z,9.00
2019-02-14T07:47:59.145Z,10.50
2019-02-14T07:50:29.002Z,7.53
2019-02-14T07:52:59.572Z,7.60
2019-02-14T07:55:30.902Z,7.90
2019-02-14T07:58:00.826Z,6.47
2019-02-14T08:00:30.684Z,9.90
2019-02-14T08:03:11.833Z,9.40
2019-02-14T08:05:39.873Z,10.20
2019-02-14T08:08:11.218Z,12.90
2019-02-14T08:10:42.265Z,6.60
2019-02-14T08:13:13.490Z,7.57
2019-02-14T08:15:44.822Z,7.17
2019-02-14T08:18:14.830Z,10.73
2019-02-14T08:20:47.118Z,8.67
2019-02-14T08:23:17.012Z,6.80
2019-02-14T08:25:46.896Z,9.53
2019-02-14T08:28:19.614Z,5.67
2019-02-14T08:30:50.173Z,11.83
2019-02-14T08:33:21.476Z,8.90
2019-02-14T08:35:52.803Z,7.97
2019-02-14T08:38:24.355Z,10.90
2019-02-14T08:40:55.847Z,9.10
2019-02-14T08:43:29.781Z,7.80
2019-02-14T08:46:04.030Z,9.50
2019-02-14T08:48:35.327Z,7.73
2019-02-14T08:51:06.813Z,11.93
2019-02-14T08:53:40.630Z,9.43
2019-02-14T08:56:15.564Z,10.77
2019-02-14T08:58:45.962Z,11.83
2019-02-14T09:01:18.051Z,10.47
2019-02-14T09:03:47.882Z,9.10
2019-02-14T09:06:18.345Z,9.33
2019-02-14T09:08:48.252Z,9.93
2019-02-14T09:11:19.581Z,10.40
2019-02-14T09:13:49.403Z,11.87
2019-02-14T09:16:20.900Z,11.67
2019-02-14T09:18:50.949Z,11.17
2019-02-14T09:21:20.809Z,10.83
2019-02-14T09:23:53.692Z,11.87
2019-02-14T09:26:25.784Z,9.23
2019-02-14T09:28:55.664Z,13.57
2019-02-14T09:31:27.013Z,10.73
2019-02-14T09:33:56.905Z,12.30
2019-02-14T09:36:28.155Z,8.97
2019-02-14T09:39:01.113Z,9.40
2019-02-14T09:41:38.010Z,9.70
2019-02-14T09:44:09.387Z,11.03
2019-02-14T09:46:40.263Z,10.70
2019-02-14T09:49:12.921Z,9.67
2019-02-14T09:51:42.873Z,9.77
2019-02-14T09:54:15.967Z,10.63
2019-02-14T09:56:45.901Z,8.87
2019-02-14T09:59:15.857Z,6.13
2019-02-14T10:01:45.653Z,7.90
2019-02-14T10:04:18.519Z,6.87
2019-02-14T10:06:51.764Z,8.60
2019-02-14T10:09:24.842Z,7.93
2019-02-14T10:11:56.147Z,7.83
2019-02-14T10:14:25.954Z,8.00
2019-02-14T10:16:56.279Z,11.40
2019-02-14T10:19:28.723Z,7.60
2019-02-14T10:21:58.924Z,5.97
2019-02-14T10:24:28.733Z,6.63
2019-02-14T10:27:00.281Z,7.53
2019-02-14T10:29:31.833Z,9.47
2019-02-14T10:32:01.670Z,10.37
2019-02-14T10:34:31.571Z,11.47
2019-02-14T10:37:01.383Z,8.33
2019-02-14T10:39:31.663Z,12.63
2019-02-14T10:42:01.468Z,12.70
2019-02-14T10:44:31.296Z,10.37
2019-02-14T10:47:06.381Z,13.13
2019-02-14T10:49:36.600Z,15.67
2019-02-14T10:52:06.495Z,16.30
2019-02-14T10:54:36.331Z,15.77
2019-02-14T10:57:09.314Z,14.60
2019-02-14T10:59:39.149Z,13.87
2019-02-14T11:02:09.094Z,19.90
2019-02-14T11:04:38.957Z,16.73
2019-02-14T11:07:11.067Z,15.20
2019-02-14T11:09:40.903Z,18.07
2019-02-14T11:12:10.732Z,20.43
2019-02-14T11:14:41.032Z,19.57
2019-02-14T11:17:10.973Z,21.17
2019-02-14T11:19:40.786Z,18.70
2019-02-14T11:22:11.724Z,20.77
2019-02-14T11:24:41.657Z,20.73
2019-02-14T11:27:11.466Z,20.03
2019-02-14T11:29:42.405Z,20.90
2019-02-14T11:32:12.194Z,18.97
2019-02-14T11:34:42.072Z,24.43
2019-02-14T11:37:13.043Z,20.80
2019-02-14T11:39:42.900Z,20.93
2019-02-14T11:42:12.757Z,25.57
2019-02-14T11:44:44.095Z,26.50
2019-02-14T11:47:15.874Z,21.53
2019-02-14T11:49:48.339Z,18.57
2019-02-14T11:52:18.096Z,23.07
2019-02-14T11:54:47.986Z,17.23
2019-02-14T11:57:17.775Z,15.53
2019-02-14T11:59:47.612Z,15.70
2019-02-14T12:02:17.480Z,16.33
2019-02-14T12:04:50.094Z,12.87
2019-02-14T12:07:19.974Z,13.43
2019-02-14T12:09:51.010Z,11.97
2019-02-14T12:12:22.550Z,11.20
2019-02-14T12:14:52.310Z,9.80
2019-02-14T12:17:22.102Z,10.63
2019-02-14T12:19:51.942Z,10.23
2019-02-14T12:22:22.933Z,10.43
2019-02-14T12:24:52.754Z,11.17
2019-02-14T12:27:26.677Z,10.77
2019-02-14T12:29:58.876Z,11.00
2019-02-14T12:32:32.745Z,12.77
2019-02-14T12:35:02.955Z,10.03
2019-02-14T12:37:34.426Z,7.77
2019-02-14T12:40:05.384Z,6.17
2019-02-14T12:42:36.356Z,7.13
2019-02-14T12:45:20.055Z,8.70
2019-02-14T12:47:43.699Z,8.27
2019-02-14T12:50:13.644Z,9.77
2019-02-14T12:52:45.260Z,11.60
2019-02-14T12:55:18.243Z,10.33
2019-02-14T12:57:48.147Z,10.80
2019-02-14T13:00:26.217Z,11.17
2019-02-14T13:02:57.223Z,11.07
2019-02-14T13:05:29.919Z,10.67
2019-02-14T13:08:01.955Z,11.50
2019-02-14T13:19:33.022Z,11.77
2019-02-14T13:22:04.408Z,12.07
2019-02-14T13:24:36.024Z,12.77
2019-02-14T13:27:07.904Z,11.10
2019-02-14T13:29:45.130Z,12.10
2019-02-14T13:32:15.218Z,14.27
2019-02-14T13:34:47.371Z,14.40
2019-02-14T13:37:17.346Z,14.40
2019-02-14T13:39:47.352Z,11.93
2019-02-14T13:42:17.173Z,13.87
2019-02-14T13:44:50.967Z,16.07
2019-02-14T13:47:22.361Z,15.07
2019-02-14T13:49:54.361Z,15.53
2019-02-14T13:52:25.373Z,15.03
2019-02-14T13:54:55.252Z,13.93
2019-02-14T13:57:25.145Z,18.47
2019-02-14T13:59:56.191Z,17.13
2019-02-14T14:02:25.996Z,19.20
2019-02-14T14:04:55.839Z,22.30
2019-02-14T14:07:25.673Z,22.60
2019-02-14T14:09:56.980Z,20.37
2019-02-14T14:12:26.797Z,20.50
2019-02-14T14:14:57.545Z,21.20
2019-02-14T14:17:28.695Z,21.53
2019-02-14T14:20:00.080Z,16.90
2019-02-14T14:22:36.869Z,16.97
2019-02-14T14:25:14.583Z,16.83
2019-02-14T14:27:45.693Z,19.47
2019-02-14T14:30:20.159Z,15.07
2019-02-14T14:32:49.999Z,13.13
2019-02-14T14:35:22.045Z,13.63
2019-02-14T14:37:51.910Z,12.80
2019-02-14T14:40:21.723Z,13.07
2019-02-14T14:42:53.178Z,12.53
2019-02-14T14:45:41.023Z,12.60
2019-02-14T14:48:19.243Z,15.73
2019-02-14T14:50:45.101Z,11.30
2019-02-14T14:53:16.242Z,17.07
2019-02-14T14:55:46.097Z,13.87
2019-02-14T14:58:18.058Z,17.30
2019-02-14T15:00:50.406Z,10.53
2019-02-14T15:03:20.237Z,8.63
2019-02-14T15:05:50.675Z,12.97
2019-02-14T15:08:25.955Z,12.83
2019-02-14T15:10:55.780Z,12.77
2019-02-14T15:13:26.602Z,12.43
2019-02-14T15:16:08.252Z,12.33
2019-02-14T15:18:38.421Z,11.80
2019-02-14T15:21:10.607Z,11.27
2019-02-14T15:23:41.929Z,14.37
2019-02-14T15:26:15.243Z,11.50
2019-02-14T15:28:47.591Z,13.20
2019-02-14T15:31:17.421Z,17.77
2019-02-14T15:33:48.759Z,13.30
2019-02-14T15:36:18.619Z,14.23
2019-02-14T15:38:50.035Z,19.27
2019-02-14T15:41:21.387Z,14.70
2019-02-14T15:43:52.865Z,24.60
2019-02-14T15:46:23.557Z,21.07
2019-02-14T15:48:54.987Z,20.83
2019-02-14T15:51:27.875Z,20.73
2019-02-14T15:53:57.707Z,22.70
2019-02-14T15:56:29.458Z,20.73
2019-02-14T15:58:59.582Z,26.90
2019-02-14T16:01:29.442Z,25.17
2019-02-14T16:04:02.463Z,26.37
2019-02-14T16:06:32.025Z,22.93
2019-02-14T16:09:01.848Z,28.50
2019-02-14T16:11:36.271Z,24.63
2019-02-14T16:14:07.043Z,23.43
2019-02-14T16:16:37.243Z,21.90
2019-02-14T16:19:08.724Z,28.30
2019-02-14T16:21:38.564Z,30.93
2019-02-14T16:24:08.835Z,29.40
2019-02-14T16:26:40.443Z,29.63
2019-02-14T16:29:10.288Z,27.97
2019-02-14T16:37:29.696Z,26.23
2019-02-14T16:39:59.628Z,30.67
2019-02-14T16:42:31.188Z,32.10
2019-02-14T16:47:50.962Z,26.53
2019-02-14T16:50:24.746Z,32.20
2019-02-14T16:52:56.400Z,28.23
2019-02-14T16:55:30.354Z,27.63
2019-02-14T16:58:05.668Z,25.00
2019-02-14T17:00:37.549Z,30.67
2019-02-14T17:03:11.880Z,33.07
2019-02-14T17:05:47.397Z,27.93
2019-02-14T17:08:20.948Z,28.60
2019-02-14T17:10:54.982Z,31.90
2019-02-14T17:13:28.413Z,36.23
2019-02-14T17:16:00.560Z,35.40
2019-02-14T17:18:31.105Z,30.63
2019-02-14T17:21:03.082Z,35.93
2019-02-14T17:23:34.492Z,38.57
2019-02-14T17:26:04.351Z,25.37
2019-02-14T17:28:34.326Z,26.83
2019-02-14T17:31:24.003Z,32.43
2019-02-14T17:33:46.107Z,32.20
2019-02-14T17:36:16.073Z,23.17
2019-02-14T17:38:50.187Z,27.27
2019-02-14T17:41:25.390Z,31.43
2019-02-14T17:44:14.695Z,26.33
2019-02-14T17:47:01.724Z,27.77
2019-02-14T17:50:25.678Z,29.03
2019-02-14T17:52:24.534Z,24.95
2019-02-14T17:58:05.525Z,30.90
2019-02-14T18:03:20.610Z,30.40
2019-02-14T18:05:54.571Z,32.90
2019-02-14T18:08:26.204Z,27.43
2019-02-14T18:11:02.934Z,25.10
2019-02-14T18:13:33.584Z,26.43
2019-02-14T18:16:07.868Z,20.17
2019-02-14T18:18:47.582Z,26.60
2019-02-14T18:21:17.541Z,27.97
2019-02-14T18:23:47.391Z,31.23
2019-02-14T18:26:17.375Z,27.10
2019-02-14T18:28:52.250Z,25.23
2019-02-14T18:31:25.214Z,22.77
2019-02-14T18:33:57.956Z,30.93
2019-02-14T18:36:29.500Z,31.80
2019-02-14T18:38:59.371Z,31.03
2019-02-14T18:41:32.223Z,25.63
2019-02-14T18:44:07.151Z,38.90
2019-02-14T18:46:47.554Z,33.83
2019-02-14T18:49:17.431Z,30.23
2019-02-14T18:51:48.823Z,35.47
2019-02-14T18:54:20.193Z,31.77
2019-02-14T18:59:57.247Z,25.30
2019-02-14T19:02:30.171Z,27.23
2019-02-14T19:05:05.003Z,26.50
2019-02-14T19:10:32.470Z,33.77
2019-02-14T19:13:06.161Z,32.00
2019-02-14T19:15:48.216Z,37.27
2019-02-14T19:18:20.239Z,39.93
2019-02-14T19:21:21.405Z,40.00
2019-02-14T19:23:58.981Z,31.73
2019-02-14T19:26:36.845Z,39.20
2019-02-14T19:29:13.257Z,37.57
2019-02-14T19:31:47.779Z,37.60
2019-02-14T19:34:19.530Z,36.80
2019-02-14T19:37:02.767Z,45.87
2019-02-14T19:42:26.840Z,53.27
2019-02-14T19:44:59.878Z,55.20
2019-02-14T19:47:38.549Z,52.63
2019-02-14T19:50:15.147Z,48.23
2019-02-14T19:52:56.377Z,47.00
2019-02-14T19:55:26.081Z,38.60
2019-02-14T19:58:09.294Z,47.43
2019-02-14T20:00:40.456Z,44.90
2019-02-14T20:03:21.704Z,48.57
2019-02-14T20:05:55.871Z,52.80
2019-02-14T20:08:34.994Z,50.43
2019-02-14T20:11:07.227Z,49.13
2019-02-14T20:13:56.509Z,50.83
2019-02-14T20:16:31.147Z,52.07
2019-02-14T20:25:16.297Z,49.20
2019-02-14T20:27:52.765Z,40.43
2019-02-14T20:30:24.152Z,48.23
2019-02-14T20:33:04.786Z,48.40
2019-02-14T20:35:33.961Z,43.30
2019-02-14T20:38:07.047Z,48.03
2019-02-14T20:40:38.475Z,50.10
2019-02-14T20:43:12.318Z,41.77
2019-02-14T20:45:44.975Z,45.90
2019-02-14T20:48:16.447Z,42.07
2019-02-14T20:50:49.625Z,41.90
2019-02-14T20:53:21.561Z,43.60
2019-02-14T20:55:57.384Z,42.70
2019-02-14T20:58:30.383Z,53.27
2019-02-14T21:04:03.117Z,50.20
2019-02-14T21:06:33.313Z,43.00
2019-02-14T21:09:05.612Z,50.47
2019-02-14T21:11:36.489Z,44.87
2019-02-14T21:14:08.279Z,48.03
2019-02-14T21:16:39.472Z,48.17
2019-02-14T21:19:11.466Z,43.03
2019-02-14T21:21:42.370Z,44.77
2019-02-14T21:24:13.848Z,49.83
2019-02-14T21:26:45.567Z,51.80
2019-02-14T21:29:18.157Z,54.90
2019-02-14T21:31:48.072Z,39.73
2019-02-14T21:34:20.817Z,40.43
2019-02-14T21:36:52.270Z,43.97
2019-02-14T21:39:22.087Z,56.87
2019-02-14T21:41:53.190Z,54.50
2019-02-14T21:44:26.085Z,39.70
2019-02-14T21:46:59.153Z,43.63
2019-02-14T21:49:34.465Z,43.70
2019-02-14T21:52:08.825Z,37.70
2019-02-14T21:54:41.491Z,46.80
2019-02-14T21:57:15.256Z,37.67
2019-02-14T21:59:45.384Z,31.10
2019-02-14T22:02:18.598Z,31.23
2019-02-14T22:04:48.415Z,40.20
2019-02-14T22:07:20.554Z,49.20
2019-02-14T22:09:52.980Z,42.57
2019-02-14T22:12:39.735Z,49.50
2019-02-14T22:15:01.196Z,66.90
2019-02-14T22:17:34.204Z,43.80
2019-02-14T22:20:08.754Z,42.17
2019-02-14T22:22:41.667Z,33.17
2019-02-14T22:25:15.088Z,59.10
2019-02-14T22:27:44.989Z,39.90
2019-02-14T22:30:18.806Z,37.57
2019-02-14T22:32:52.229Z,40.17
2019-02-14T22:35:25.518Z,45.50
2019-02-14T22:37:59.811Z,43.87
2019-02-14T22:40:31.515Z,41.13
2019-02-14T22:43:03.867Z,41.53
2019-02-14T22:45:36.039Z,48.40
2019-02-14T22:48:08.585Z,47.27
2019-02-14T22:50:39.674Z,37.97
2019-02-14T22:53:10.626Z,51.37
2019-02-14T22:55:40.484Z,42.40
2019-02-14T22:58:10.949Z,45.90
2019-02-14T23:00:44.124Z,44.27
2019-02-14T23:03:13.961Z,51.37
2019-02-14T23:05:43.745Z,44.37
2019-02-14T23:08:13.535Z,49.50
2019-02-14T23:10:43.635Z,47.20
2019-02-14T23:13:13.443Z,45.53
2019-02-14T23:15:43.267Z,42.33
2019-02-14T23:18:14.443Z,45.10
2019-02-14T23:20:46.765Z,45.00
2019-02-14T23:23:17.541Z,44.00
2019-02-14T23:25:47.383Z,42.60
2019-02-14T23:28:17.195Z,41.50
2019-02-14T23:30:46.993Z,37.63
2019-02-14T23:33:16.819Z,38.73
2019-02-14T23:35:46.687Z,48.53
2019-02-14T23:38:17.716Z,45.00
2019-02-14T23:40:47.515Z,44.33
2019-02-14T23:43:19.026Z,41.70
2019-02-14T23:45:48.818Z,41.47
2019-02-14T23:48:18.682Z,48.63
2019-02-14T23:50:48.517Z,44.17
2019-02-14T23:53:18.618Z,41.83
2019-02-14T23:55:48.415Z,49.47
2019-02-14T23:58:18.276Z,46.30
